Time;durP1;ratioP1;P1;durP2;ratioP2;P2;SDS_P1;SDS_P2;PMS_P1;PMS_P2;Temp;Humidity;BMP_temperature;BMP_pressure;BME280_temperature;BME280_humidity;BME280_pressure;Samples;Min_cycle;Max_cycle;Signal;HPM_P1;HPM_P2
2021/12/17 00:01:10;;;;;;;43.53;18.38;;;8.10;99.90;;;6.43;100.00;103546.56;2567813;30;138318;-41
2021/12/17 00:03:49;;;;;;;41.13;17.73;;;8.10;99.90;;;6.43;100.00;103550.16;2569834;30;137570;-41
2021/12/17 00:08:55;;;;;;;39.22;16.80;;;8.10;99.90;;;6.42;100.00;103536.72;2568585;30;137703;-41
2021/12/17 00:11:24;;;;;;;37.03;16.85;;;8.00;99.90;;;6.40;100.00;103536.84;2567970;30;138268;-41
2021/12/17 00:13:54;;;;;;;37.08;17.15;;;8.00;99.90;;;6.38;100.00;103536.09;2569254;30;136901;-41
2021/12/17 00:16:26;;;;;;;38.72;17.77;;;8.00;99.90;;;6.41;100.00;103544.00;2568453;30;139110;-41
2021/12/17 00:19:08;;;;;;;40.53;16.60;;;8.00;99.90;;;6.41;100.00;103548.53;2565676;30;137805;-41
2021/12/17 00:49:30;;;;;;;40.42;18.55;;;8.00;99.90;;;6.36;100.00;103519.06;2567440;30;138226;-41
2021/12/17 00:52:00;;;;;;;36.53;16.25;;;8.00;99.90;;;6.37;100.00;103523.53;2567256;30;137998;-41
2021/12/17 00:54:42;;;;;;;37.47;16.63;;;8.00;99.90;;;6.36;100.00;103516.34;2565320;30;139786;-41
2021/12/17 00:57:16;;;;;;;32.97;15.75;;;8.00;99.90;;;6.35;100.00;103516.47;2567716;30;137726;-41
2021/12/17 00:59:51;;;;;;;37.85;17.95;;;8.00;99.90;;;6.36;100.00;103513.63;2568273;30;138170;-41
2021/12/17 01:02:26;;;;;;;37.50;18.20;;;8.00;99.90;;;6.36;100.00;103510.91;2567797;30;136851;-41
2021/12/17 01:05:00;;;;;;;40.65;18.48;;;8.00;99.90;;;6.37;100.00;103514.50;2567203;30;138547;-41
2021/12/17 01:07:33;;;;;;;32.85;16.17;;;8.00;99.90;;;6.36;100.00;103513.63;2566712;30;139135;-42
2021/12/17 01:10:10;;;;;;;35.50;16.17;;;8.00;99.90;;;6.36;100.00;103508.22;2567720;30;140306;-41
2021/12/17 01:12:49;;;;;;;38.58;17.77;;;8.00;99.90;;;6.35;100.00;103505.63;2567898;30;139633;-41
2021/12/17 01:15:42;;;;;;;36.40;15.75;;;8.00;99.90;;;6.35;100.00;103501.06;2567064;30;136912;-41
2021/12/17 01:18:23;;;;;;;33.83;16.23;;;8.00;99.90;;;6.33;100.00;103498.47;2566890;30;139749;-41
2021/12/17 01:21:37;;;;;;;33.70;16.20;;;8.00;99.90;;;6.30;100.00;103487.88;2567653;30;139830;-41
2021/12/17 01:24:43;;;;;;;37.50;17.90;;;8.00;99.90;;;6.35;100.00;103492.91;2567212;30;138525;-41
2021/12/17 01:35:56;;;;;;;39.58;18.42;;;8.00;99.90;;;6.35;100.00;103490.22;2567519;30;139797;-42
2021/12/17 01:44:07;;;;;;;35.08;16.25;;;8.00;99.90;;;6.38;100.00;103506.28;2567824;30;137882;-41
2021/12/17 01:46:38;;;;;;;35.05;16.45;;;8.00;99.90;;;6.36;100.00;103502.78;2566771;30;139675;-41
2021/12/17 02:00:19;;;;;;;40.50;17.77;;;8.00;99.90;;;6.39;100.00;103518.84;2567604;30;140066;-41
2021/12/17 02:02:57;;;;;;;45.45;18.95;;;8.00;99.90;;;6.36;100.00;103518.22;2567069;30;137841;-41
2021/12/17 02:05:34;;;;;;;42.88;18.92;;;8.00;99.90;;;6.36;100.00;103520.91;2567696;30;139318;-41
2021/12/17 02:08:02;;;;;;;38.10;17.90;;;8.00;99.90;;;6.37;100.00;103518.09;2568808;30;137540;-41
2021/12/17 02:31:34;;;;;;;41.45;18.00;;;7.90;99.90;;;6.34;100.00;103518.31;2566384;30;139736;-41
2021/12/17 02:37:03;;;;;;;38.53;17.55;;;7.90;99.90;;;6.33;100.00;103517.47;2569028;30;138102;-41
2021/12/17 02:48:16;;;;;;;52.95;20.65;;;8.00;99.90;;;6.35;100.00;103517.31;2567371;30;140030;-41
2021/12/17 02:50:58;;;;;;;48.17;20.05;;;8.00;99.90;;;6.38;100.00;103524.38;2566735;30;139120;-41
2021/12/17 02:53:28;;;;;;;43.00;18.15;;;8.00;99.90;;;6.37;100.00;103520.81;2568682;30;138387;-41
2021/12/17 02:56:02;;;;;;;36.53;17.15;;;8.00;99.90;;;6.36;100.00;103527.19;2564847;30;139193;-41
2021/12/17 02:58:33;;;;;;;42.97;18.95;;;8.00;99.90;;;6.36;100.00;103519.06;2566918;30;139817;-41
2021/12/17 03:01:06;;;;;;;42.28;18.85;;;8.00;99.90;;;6.35;100.00;103511.91;2567040;30;137143;-41
2021/12/17 03:03:37;;;;;;;45.10;18.60;;;7.90;99.90;;;6.38;100.00;103522.53;2565372;30;139900;-41
2021/12/17 03:06:04;;;;;;;45.75;19.27;;;8.00;99.90;;;6.40;100.00;103516.97;2567617;30;137524;-41
2021/12/17 03:08:31;;;;;;;48.42;19.27;;;8.00;99.90;;;6.40;100.00;103511.56;2568052;30;138439;-41
2021/12/17 03:11:01;;;;;;;39.83;18.50;;;8.00;99.90;;;6.40;100.00;103522.41;2567976;30;137126;-41
2021/12/17 03:13:32;;;;;;;44.35;18.50;;;8.00;99.90;;;6.39;100.00;103518.84;2567746;30;138300;-41
2021/12/17 03:16:09;;;;;;;39.40;17.50;;;8.00;99.90;;;6.38;100.00;103519.84;2567631;30;137806;-41
2021/12/17 03:24:30;;;;;;;39.72;17.23;;;8.00;99.90;;;6.36;100.00;103513.63;2564521;30;139844;-41
2021/12/17 03:26:59;;;;;;;42.85;18.77;;;8.00;99.90;;;6.36;100.00;103516.34;2565945;30;139095;-41
2021/12/17 03:29:27;;;;;;;49.95;19.60;;;8.00;99.90;;;6.36;100.00;103513.63;2566303;30;137465;-41
2021/12/17 03:32:00;;;;;;;39.63;16.83;;;8.00;99.90;;;6.36;100.00;103505.50;2565887;30;138580;-41
2021/12/17 03:34:28;;;;;;;;;;;8.00;99.90;;;6.37;100.00;103509.97;2566123;30;140332;-41
2021/12/17 03:36:57;;;;;;;39.33;15.82;;;8.00;99.90;;;6.36;100.00;103513.63;2566161;30;139338;-41
2021/12/17 03:45:53;;;;;;;39.33;16.52;;;8.00;99.90;;;6.32;100.00;103504.00;2567911;30;137252;-38
2021/12/17 03:48:21;;;;;;;42.00;18.40;;;8.00;99.90;;;6.32;100.00;103498.59;2568990;30;137638;-38
2021/12/17 03:50:49;;;;;;;42.75;17.40;;;8.00;99.90;;;6.35;100.00;103505.63;2568254;30;140253;-38
2021/12/17 03:53:16;;;;;;;39.88;16.38;;;7.90;99.90;;;6.33;100.00;103503.91;2569177;30;139266;-38
2021/12/17 03:55:44;;;;;;;42.83;16.80;;;8.00;99.90;;;6.33;100.00;103505.75;2568664;30;139893;-38
2021/12/17 03:58:11;;;;;;;41.55;18.45;;;7.90;99.90;;;6.22;100.00;103494.88;2568828;30;138638;-38
2021/12/17 04:00:43;;;;;;;42.28;17.77;;;8.00;99.90;;;6.32;100.00;103512.16;2568817;30;140836;-38
2021/12/17 04:03:11;;;;;;;40.60;18.10;;;7.90;99.90;;;6.32;100.00;103510.31;2568775;30;139149;-38
2021/12/17 04:05:47;;;;;;;40.17;16.75;;;8.00;99.90;;;6.31;100.00;103510.41;2568840;30;140419;-38
2021/12/17 04:08:23;;;;;;;38.08;15.73;;;7.90;99.90;;;6.30;100.00;103504.16;2569020;30;136821;-38
2021/12/17 04:11:17;;;;;;;36.85;16.08;;;7.90;99.90;;;6.31;100.00;103510.41;2567197;30;137399;-38
2021/12/17 04:13:54;;;;;;;42.95;17.73;;;7.90;99.90;;;6.30;100.00;103503.25;2569169;30;139275;-38
2021/12/17 04:16:28;;;;;;;41.60;16.50;;;7.90;99.90;;;6.30;100.00;103505.97;2568391;30;140941;-38
2021/12/17 04:18:56;;;;;;;37.80;16.60;;;7.90;99.90;;;6.30;100.00;103500.56;2571287;30;136697;-38
2021/12/17 04:21:27;;;;;;;35.85;15.52;;;7.90;99.90;;;6.29;100.00;103504.25;2568313;30;140598;-38
2021/12/17 04:23:55;;;;;;;39.30;17.48;;;7.90;99.90;;;6.28;100.00;103503.41;2568766;30;137922;-38
2021/12/17 04:26:25;;;;;;;;;;;7.90;99.90;;;6.27;100.00;103498.09;2567209;30;138305;-38
2021/12/17 04:29:03;;;;;;;36.80;15.80;;;7.90;99.90;;;6.29;100.00;103506.97;2570057;30;137564;-38
2021/12/17 04:31:31;;;;;;;42.45;17.65;;;7.90;99.90;;;6.29;100.00;103506.97;2568877;30;137169;-38
2021/12/17 04:33:59;;;;;;;43.22;18.75;;;7.90;99.90;;;6.30;100.00;103505.97;2569474;30;139286;-38
2021/12/17 04:36:33;;;;;;;42.13;18.77;;;7.90;99.90;;;6.33;100.00;103508.44;2568285;30;138447;-38
2021/12/17 04:39:06;;;;;;;37.10;16.73;;;7.90;99.90;;;6.33;100.00;103500.31;2570008;30;138513;-38
2021/12/17 04:42:21;;;;;;;;;;;8.00;99.90;;;6.34;100.00;103504.75;2569180;30;139865;-38
2021/12/17 04:44:28;;;;;;;46.35;17.90;;;7.90;99.90;;;6.36;100.00;103507.38;2568049;30;138587;-37
2021/12/17 04:57:57;;;;;;;43.83;18.17;;;8.00;99.90;;;6.36;100.00;103510.91;2566643;30;139379;-38
2021/12/17 05:00:29;;;;;;;37.17;16.70;;;8.00;99.90;;;6.39;100.00;103513.44;2568584;30;139203;-38
2021/12/17 05:03:07;;;;;;;47.60;21.00;;;8.00;99.90;;;6.44;100.00;103518.47;2569431;30;138365;-38
2021/12/17 05:05:37;;;;;;;52.65;21.27;;;8.00;99.90;;;6.46;100.00;103520.09;2567691;30;136842;-38
2021/12/17 05:08:17;;;;;;;50.58;21.95;;;8.10;99.90;;;6.51;100.00;103525.16;2568050;30;139346;-38
2021/12/17 05:11:19;;;;;;;53.55;21.45;;;8.10;99.90;;;6.51;100.00;103532.44;2569431;30;140000;-38
2021/12/17 05:19:27;;;;;;;45.30;19.20;;;8.10;99.90;;;6.51;100.00;103511.59;2568865;30;138769;-38
2021/12/17 05:21:56;;;;;;;47.30;20.02;;;8.10;99.90;;;6.52;100.00;103509.75;2569235;30;138410;-38
2021/12/17 05:24:24;;;;;;;53.30;21.75;;;8.10;99.90;;;6.50;100.00;103509.88;2567860;30;139480;-38
2021/12/17 05:26:51;;;;;;;52.33;21.88;;;8.10;99.90;;;6.52;100.00;103507.03;2568070;30;139360;-38
2021/12/17 05:29:20;;;;;;;52.35;22.27;;;8.20;99.90;;;6.56;100.00;103512.09;2571090;30;141144;-38
2021/12/17 05:31:48;;;;;;;53.30;21.25;;;8.20;99.90;;;6.55;100.00;103506.78;2568202;30;137612;-38
2021/12/17 05:34:16;;;;;;;50.90;20.35;;;8.20;99.90;;;6.57;100.00;103510.25;2570291;30;138552;-37
2021/12/17 05:36:49;;;;;;;52.50;20.75;;;8.20;99.90;;;6.56;100.00;103511.22;2570293;30;139792;-38
2021/12/17 05:39:22;;;;;;;54.55;19.98;;;8.10;99.90;;;6.53;100.00;103506.03;2569390;30;139973;-38
2021/12/17 05:41:52;;;;;;;48.33;20.10;;;8.20;99.90;;;6.53;100.00;103520.50;2567341;30;138510;-38
2021/12/17 05:44:34;;;;;;;52.78;20.85;;;8.10;99.90;;;6.53;100.00;103520.50;2567098;30;138197;-38
2021/12/17 05:47:03;;;;;;;53.95;21.25;;;8.10;99.90;;;6.53;100.00;103520.50;2567250;30;140329;-38
2021/12/17 05:49:31;;;;;;;51.05;20.92;;;8.20;99.90;;;6.51;100.00;103517.03;2570241;30;139889;-38
2021/12/17 05:52:02;;;;;;;55.78;21.45;;;8.20;99.90;;;6.50;100.00;103507.16;2569383;30;138972;-38
2021/12/17 05:54:30;;;;;;;58.88;20.90;;;8.20;99.90;;;6.56;100.00;103525.66;2569536;30;139649;-38
2021/12/17 05:56:59;;;;;;;59.50;22.35;;;8.20;99.90;;;6.51;100.00;103521.56;2567294;30;139464;-38
2021/12/17 05:59:34;;;;;;;56.97;19.83;;;8.20;99.90;;;6.58;100.00;103525.53;2570326;30;140013;-38
2021/12/17 06:02:09;;;;;;;55.60;19.65;;;8.20;99.90;;;6.57;100.00;103515.66;2568047;30;138160;-38
2021/12/17 06:04:40;;;;;;;59.40;21.75;;;8.20;99.90;;;6.58;100.00;103517.41;2566709;30;140427;-38
2021/12/17 06:07:08;;;;;;;61.20;21.20;;;8.20;99.90;;;6.54;100.00;103524.94;2568759;30;139462;-38
2021/12/17 06:09:39;;;;;;;64.38;21.40;;;8.20;99.90;;;6.56;100.00;103519.38;2569021;30;139694;-38
2021/12/17 06:12:12;;;;;;;59.75;19.85;;;8.20;99.90;;;6.55;100.00;103514.94;2569818;30;139344;-38
2021/12/17 06:14:40;;;;;;;;;;;8.20;99.90;;;6.57;100.00;103515.66;2569971;30;138349;-38
2021/12/17 06:17:07;;;;;;;50.25;18.08;;;8.20;99.90;;;6.54;100.00;103505.06;2568646;30;136834;-38
2021/12/17 06:19:41;;;;;;;55.90;20.25;;;8.20;99.90;;;6.53;100.00;103501.50;2568617;30;140841;-38
2021/12/17 06:22:11;;;;;;;59.05;19.75;;;8.20;99.90;;;6.53;100.00;103500.63;2568684;30;138872;-38
2021/12/17 06:24:44;;;;;;;55.42;18.67;;;8.20;99.90;;;6.56;100.00;103511.22;2564290;30;140455;-38
2021/12/17 06:27:17;;;;;;;48.35;17.17;;;8.10;99.90;;;6.53;100.00;103514.19;2568759;30;139406;-38
2021/12/17 06:29:45;;;;;;;51.42;18.13;;;8.10;99.90;;;6.51;100.00;103517.03;2568135;30;139454;-38
2021/12/17 06:32:16;;;;;;;48.80;18.05;;;8.20;99.90;;;6.51;100.00;103508.00;2569425;30;137112;-38
2021/12/17 06:34:45;;;;;;;52.40;18.20;;;8.10;99.90;;;6.46;100.00;103506.53;2567296;30;137157;-37
2021/12/17 06:37:15;;;;;;;56.70;18.13;;;8.10;99.90;;;6.51;100.00;103502.59;2569680;30;139400;-38
2021/12/17 06:39:45;;;;;;;45.10;17.50;;;8.10;99.90;;;6.51;100.00;103511.59;2569500;30;139432;-38
2021/12/17 06:42:16;;;;;;;50.78;18.13;;;8.10;99.90;;;6.49;100.00;103508.13;2567339;30;137919;-38
2021/12/17 06:44:46;;;;;;;49.00;16.85;;;8.10;99.90;;;6.52;100.00;103512.47;2571231;30;139030;-37
2021/12/17 06:47:30;;;;;;;50.90;16.67;;;8.10;99.90;;;6.51;100.00;103510.72;2569710;30;137138;-38
2021/12/17 06:58:58;;;;;;;50.58;16.50;;;8.10;99.90;;;6.48;100.00;103518.13;2567351;30;138888;-38
2021/12/17 07:10:52;;;;;;;57.70;16.38;;;8.00;99.90;;;6.45;100.00;103502.09;2570734;30;139609;-38
2021/12/17 07:23:01;;;;;;;50.20;15.88;;;8.00;99.90;;;6.41;100.00;103511.44;2568722;30;138893;-38
2021/12/17 07:33:36;;;;;;;55.47;17.80;;;8.00;99.90;;;6.43;100.00;103517.63;2568878;30;137779;-38
2021/12/17 07:36:37;;;;;;;54.78;17.23;;;8.10;99.90;;;6.43;100.00;103514.03;2568163;30;139313;-38
2021/12/17 07:39:04;;;;;;;57.72;16.45;;;8.00;99.90;;;6.43;100.00;103519.44;2567602;30;139619;-38
2021/12/17 07:41:43;;;;;;;58.55;17.70;;;8.00;99.90;;;6.44;100.00;103515.75;2569801;30;137577;-38
2021/12/17 07:44:29;;;;;;;49.70;15.60;;;8.10;99.90;;;6.44;100.00;103522.06;2569639;30;136917;-37
2021/12/17 07:47:15;;;;;;;58.33;17.60;;;8.10;99.90;;;6.50;100.00;103528.00;2569593;30;136899;-38
2021/12/17 07:49:50;;;;;;;61.28;17.58;;;8.10;99.90;;;6.46;100.00;103533.66;2569519;30;138734;-38
2021/12/17 07:52:18;;;;;;;63.88;18.27;;;8.10;99.90;;;6.43;100.00;103528.47;2568048;30;138464;-38
2021/12/17 07:54:47;;;;;;;54.03;16.05;;;8.10;99.90;;;6.42;100.00;103537.59;2571095;30;136851;-38
2021/12/17 07:57:15;;;;;;;54.42;16.10;;;8.00;99.90;;;6.43;100.00;103533.00;2569138;30;139954;-37
2021/12/17 07:59:43;;;;;;;52.60;16.27;;;8.00;99.90;;;6.43;100.00;103543.88;2569364;30;138498;-38
2021/12/17 08:02:10;;;;;;;64.30;17.52;;;8.10;99.90;;;6.46;100.00;103544.50;2568918;30;140032;-38
2021/12/17 08:04:45;;;;;;;53.67;16.42;;;8.00;99.90;;;6.49;100.00;103537.97;2568761;30;138660;-37
2021/12/17 08:07:18;;;;;;;59.30;18.60;;;8.10;99.90;;;6.47;100.00;103537.22;2568594;30;139482;-38
2021/12/17 08:09:46;;;;;;;58.30;17.08;;;8.10;99.90;;;6.43;100.00;103542.03;2566323;30;139672;-38
2021/12/17 08:12:13;;;;;;;66.50;18.88;;;8.00;99.90;;;6.47;100.00;103546.22;2568348;30;138145;-38
2021/12/17 08:14:51;;;;;;;57.73;16.17;;;8.10;99.90;;;6.48;100.00;103558.81;2569194;30;137168;-38
2021/12/17 08:25:38;;;;;;;53.20;17.67;;;8.10;99.90;;;6.46;100.00;103558.06;2566757;30;138716;-38
2021/12/17 08:28:09;;;;;;;57.22;17.10;;;8.10;99.90;;;6.45;100.00;103556.34;2569108;30;138266;-38
2021/12/17 08:30:40;;;;;;;62.03;19.15;;;8.10;99.90;;;6.51;100.00;103564.97;2569768;30;138846;-38
2021/12/17 08:33:22;;;;;;;61.67;17.73;;;8.10;99.90;;;6.50;100.00;103574.09;2568628;30;137703;-38
2021/12/17 08:35:57;;;;;;;69.43;19.45;;;8.10;99.90;;;6.52;100.00;103578.44;2568607;30;137214;-38
2021/12/17 08:38:31;;;;;;;74.82;19.67;;;8.10;99.90;;;6.55;100.00;103580.91;2569443;30;139693;-38
2021/12/17 08:41:04;;;;;;;70.15;20.02;;;8.10;99.90;;;6.48;100.00;103577.78;2569212;30;137461;-38
2021/12/17 08:43:32;;;;;;;59.47;18.77;;;8.10;99.90;;;6.50;100.00;103584.94;2568565;30;140658;-38
2021/12/17 08:46:00;;;;;;;;;;;8.10;99.90;;;6.51;100.00;103586.69;2568178;30;139242;-38
2021/12/17 08:48:54;;;;;;;62.97;17.55;;;8.10;99.90;;;6.54;100.00;103587.31;2568924;30;137620;-38
2021/12/17 08:51:33;;;;;;;66.10;18.92;;;8.20;99.90;;;6.54;100.00;103581.00;2568522;30;138697;-38
2021/12/17 08:54:03;;;;;;;63.88;19.52;;;8.10;99.90;;;6.60;100.00;103591.38;2565933;30;139444;-38
2021/12/17 08:56:42;;;;;;;61.63;17.48;;;8.20;99.90;;;6.61;100.00;103582.25;2568858;30;138952;-38
2021/12/17 08:59:14;;;;;;;58.78;17.85;;;8.20;99.90;;;6.67;100.00;103589.94;2568525;30;140567;-38
2021/12/17 09:02:03;;;;;;;63.75;17.77;;;8.30;99.90;;;6.66;100.00;103584.63;2570479;30;136856;-38
2021/12/17 09:04:32;;;;;;;58.38;16.65;;;8.30;99.90;;;6.65;100.00;103585.63;2569527;30;140181;-37
2021/12/17 09:07:02;;;;;;;53.03;16.20;;;8.20;99.90;;;6.69;100.00;103587.09;2569414;30;140105;-38
2021/12/17 09:09:30;;;;;;;;;;;8.20;99.90;;;6.69;100.00;103582.56;2570167;30;138295;-38
2021/12/17 09:12:08;;;;;;;52.13;14.95;;;8.30;99.90;;;6.72;100.00;103586.84;2569897;30;138266;-38
2021/12/17 09:14:38;;;;;;;50.38;15.88;;;8.30;99.90;;;6.73;100.00;103589.47;2568605;30;139850;-38
2021/12/17 09:17:26;;;;;;;49.97;15.73;;;8.30;99.90;;;6.76;100.00;103596.47;2568159;30;137973;-37
2021/12/17 09:19:54;;;;;;;48.80;14.57;;;8.30;99.90;;;6.81;100.00;103594.31;2568985;30;140922;-38
2021/12/17 09:22:23;;;;;;;52.85;15.23;;;8.40;99.90;;;6.86;100.00;103599.34;2566643;30;138762;-38
2021/12/17 09:24:54;;;;;;;42.63;14.73;;;8.40;99.90;;;6.90;100.00;103599.00;2568835;30;140802;-38
2021/12/17 09:27:30;;;;;;;47.63;14.75;;;8.50;99.90;;;6.87;100.00;103595.66;2569224;30;138616;-37
2021/12/17 09:30:18;;;;;;;47.53;14.32;;;8.40;99.90;;;6.85;100.00;103595.78;2569142;30;138942;-37
2021/12/17 09:32:46;;;;;;;49.42;15.32;;;8.40;99.90;;;6.88;100.00;103602.81;2566665;30;138552;-38
2021/12/17 09:35:15;;;;;;;47.63;13.75;;;8.50;99.90;;;6.90;100.00;103603.59;2567444;30;138392;-38
2021/12/17 09:37:42;;;;;;;47.60;15.25;;;8.50;99.90;;;6.95;100.00;103604.06;2570555;30;137275;-38
2021/12/17 09:40:12;;;;;;;42.10;14.70;;;8.50;99.90;;;7.01;100.00;103606.31;2569666;30;137548;-38
2021/12/17 09:42:42;;;;;;;44.42;14.85;;;8.50;99.90;;;7.02;100.00;103608.03;2569844;30;138463;-38
2021/12/17 09:45:12;;;;;;;45.00;14.65;;;8.60;99.90;;;7.02;100.00;103613.47;2573899;30;139177;-41
2021/12/17 09:47:41;;;;;;;51.33;14.80;;;8.60;99.90;;;7.11;100.00;103614.59;2568910;30;137260;-41
2021/12/17 09:50:13;;;;;;;46.03;14.05;;;8.60;99.90;;;7.05;100.00;103607.78;2567873;30;138858;-40
2021/12/17 09:52:41;;;;;;;42.50;14.27;;;8.70;99.90;;;7.09;100.00;103608.41;2566051;30;136810;-41
2021/12/17 09:55:09;;;;;;;44.13;14.95;;;8.60;99.90;;;7.09;100.00;103608.41;2567960;30;137173;-41
2021/12/17 09:57:37;;;;;;;40.83;13.90;;;8.70;99.90;;;7.11;100.00;103601.03;2568983;30;136982;-41
2021/12/17 10:00:17;;;;;;;42.45;14.32;;;8.70;99.90;;;7.17;100.00;103610.53;2567019;30;138218;-42
2021/12/17 10:02:48;;;;;;;41.63;14.52;;;8.70;99.90;;;7.18;100.00;103607.69;2567686;30;137479;-41
2021/12/17 10:05:32;;;;;;;38.15;14.93;;;8.70;99.90;;;7.15;100.00;103604.34;2568231;30;138094;-40
2021/12/17 10:08:14;;;;;;;45.45;15.32;;;8.70;99.90;;;7.22;100.00;103605.59;2568392;30;137982;-40
2021/12/17 10:10:50;;;;;;;42.95;14.68;;;8.70;99.90;;;7.20;100.00;103605.72;2568192;30;138390;-41
2021/12/17 10:13:27;;;;;;;46.20;15.32;;;8.70;99.90;;;7.31;100.00;103613.00;2567636;30;137546;-41
2021/12/17 10:16:08;;;;;;;41.45;14.88;;;8.80;99.90;;;7.29;100.00;103609.53;2567919;30;137205;-41
2021/12/17 10:18:47;;;;;;;45.17;15.85;;;8.80;99.90;;;7.30;100.00;103611.28;2568446;30;136824;-41
2021/12/17 10:21:23;;;;;;;39.25;14.50;;;8.80;99.90;;;7.39;100.00;103616.94;2568334;30;137274;-41
2021/12/17 10:23:54;;;;;;;41.90;14.45;;;8.90;99.90;;;7.37;100.00;103616.22;2566622;30;137426;-41
2021/12/17 10:26:25;;;;;;;42.00;14.70;;;8.90;99.90;;;7.36;100.00;103615.38;2567006;30;137086;-41
2021/12/17 10:29:04;;;;;;;37.45;14.55;;;8.90;99.90;;;7.37;100.00;103614.38;2568361;30;137542;-41
2021/12/17 10:31:37;;;;;;;41.50;14.80;;;8.90;99.90;;;7.38;100.00;103617.94;2566999;30;138278;-41
2021/12/17 10:34:05;;;;;;;43.72;15.43;;;8.90;99.90;;;7.40;100.00;103621.41;2567348;30;137677;-41
2021/12/17 10:36:42;;;;;;;42.88;15.95;;;8.90;99.90;;;7.46;100.00;103610.06;2565469;30;137449;-41
2021/12/17 10:39:24;;;;;;;40.53;15.10;;;9.00;99.90;;;7.46;100.00;103610.06;2567101;30;138350;-41
2021/12/17 10:41:52;;;;;;;40.33;15.95;;;9.00;99.90;;;7.44;100.00;103607.44;2567912;30;138464;-41
2021/12/17 10:44:21;;;;;;;37.95;14.38;;;9.00;99.90;;;7.46;100.00;103610.06;2567962;30;137717;-43
2021/12/17 10:47:18;;;;;;;41.90;15.75;;;9.00;99.90;;;7.44;100.00;103604.75;2565374;30;138714;-41
2021/12/17 10:49:54;;;;;;;46.10;15.07;;;9.00;99.90;;;7.49;100.00;103605.22;2566728;30;137884;-41
2021/12/17 10:52:38;;;;;;;41.85;16.15;;;9.00;99.90;;;7.49;100.00;103597.06;2568734;30;138352;-42
2021/12/17 10:55:16;;;;;;;43.58;15.32;;;9.00;99.90;;;7.55;100.00;103595.72;2566276;30;139348;-41
2021/12/17 10:57:48;;;;;;;46.92;16.67;;;9.10;99.90;;;7.57;100.00;103601.91;2568404;30;138172;-41
2021/12/17 11:00:17;;;;;;;40.90;15.75;;;9.10;99.90;;;7.60;100.00;103596.22;2568406;30;137404;-41
2021/12/17 11:02:54;;;;;;;42.05;16.23;;;9.10;99.90;;;7.59;100.00;103593.63;2566612;30;138481;-41
2021/12/17 11:05:23;;;;;;;41.03;16.10;;;9.10;99.90;;;7.57;100.00;103598.31;2566815;30;137654;-43
2021/12/17 11:07:52;;;;;;;42.97;17.27;;;9.10;99.90;;;7.56;100.00;103592.00;2567639;30;139082;-41
2021/12/17 11:10:33;;;;;;;45.35;17.30;;;9.10;99.90;;;7.58;100.00;103594.63;2568094;30;137042;-42
2021/12/17 11:13:01;;;;;;;39.78;16.42;;;9.10;99.90;;;7.63;100.00;103595.09;2569518;30;138297;-41
2021/12/17 11:15:30;;;;;;;41.33;16.52;;;9.10;99.90;;;7.66;100.00;103599.41;2569404;30;137520;-41
2021/12/17 11:18:04;;;;;;;45.70;17.63;;;9.20;99.90;;;7.68;100.00;103600.13;2569606;30;138269;-41
2021/12/17 11:20:39;;;;;;;43.08;17.40;;;9.20;99.90;;;7.66;100.00;103600.28;2570648;30;137527;-41
2021/12/17 11:23:12;;;;;;;48.08;18.08;;;9.20;99.90;;;7.60;100.00;103601.63;2568772;30;138188;-41
2021/12/17 11:25:55;;;;;;;37.33;15.93;;;9.10;99.90;;;7.62;100.00;103596.94;2568622;30;137486;-41
2021/12/17 11:28:23;;;;;;;51.15;19.55;;;9.10;99.90;;;7.61;100.00;103607.94;2569999;30;138164;-42
2021/12/17 11:30:51;;;;;;;;;;;9.10;99.90;;;7.56;100.00;103602.00;2568020;30;138424;-40
2021/12/17 11:33:19;;;;;;;47.83;18.17;;;9.10;99.90;;;7.59;100.00;103607.22;2570194;30;138212;-42
2021/12/17 11:35:49;;;;;;;;;;;9.10;99.90;;;7.60;100.00;103601.63;2568205;30;136918;-41
2021/12/17 11:38:54;;;;;;;46.05;17.77;;;9.10;99.90;;;7.59;100.00;103597.19;2569082;30;138255;-41
2021/12/17 11:41:47;;;;;;;44.72;17.77;;;9.10;99.90;;;7.53;100.00;103600.41;2568953;30;137722;-44
2021/12/17 11:44:19;;;;;;;44.25;18.63;;;9.10;99.90;;;7.53;100.00;103584.13;2568387;30;137114;-41
2021/12/17 11:47:04;;;;;;;46.33;18.35;;;9.10;99.90;;;7.57;100.00;103599.19;2568697;30;137551;-41
2021/12/17 11:49:39;;;;;;;54.22;20.27;;;9.10;99.90;;;7.53;100.00;103594.97;2566412;30;139206;-41
2021/12/17 11:52:07;;;;;;;48.97;19.05;;;9.10;99.90;;;7.52;100.00;103587.81;2568998;30;136920;-41
2021/12/17 11:54:35;;;;;;;52.72;20.05;;;9.10;99.90;;;7.55;100.00;103601.16;2569044;30;137376;-41
2021/12/17 11:57:12;;;;;;;51.20;19.55;;;9.10;99.90;;;7.52;100.00;103593.25;2569083;30;137572;-41
2021/12/17 11:59:45;;;;;;;45.90;18.70;;;9.10;99.90;;;7.56;100.00;103604.72;2569099;30;139209;-41
2021/12/17 12:02:23;;;;;;;48.88;19.33;;;9.10;99.90;;;7.62;100.00;103601.53;2569876;30;137107;-40
2021/12/17 12:05:00;;;;;;;42.57;18.50;;;9.10;99.90;;;7.62;100.00;103591.50;2567026;30;138746;-41
2021/12/17 12:07:28;;;;;;;46.47;19.67;;;9.20;99.90;;;7.72;100.00;103588.91;2570229;30;137849;-40
2021/12/17 12:10:13;;;;;;;49.60;19.10;;;9.20;99.90;;;7.74;100.00;103596.94;2568938;30;139137;-41
2021/12/17 12:12:46;;;;;;;48.65;19.08;;;9.30;99.90;;;7.70;100.00;103600.91;2568802;30;137616;-40
2021/12/17 12:15:23;;;;;;;43.13;18.70;;;9.30;99.90;;;7.69;100.00;103601.88;2568222;30;137196;-41
2021/12/17 12:18:16;;;;;;;45.22;19.88;;;9.30;99.90;;;7.72;100.00;103593.50;2570026;30;137536;-42
2021/12/17 12:20:52;;;;;;;47.28;19.50;;;9.30;99.90;;;7.72;100.00;103593.50;2568601;30;138160;-41
2021/12/17 12:23:31;;;;;;;45.65;19.73;;;9.30;99.90;;;7.74;100.00;103584.22;2568421;30;136701;-41
2021/12/17 12:26:11;;;;;;;45.30;19.58;;;9.30;99.90;;;7.74;100.00;103589.66;2568294;30;136657;-41
2021/12/17 12:28:48;;;;;;;46.78;19.33;;;9.30;99.90;;;7.76;100.00;103586.81;2566647;30;137204;-41
2021/12/17 12:31:32;;;;;;;43.50;19.17;;;9.30;99.90;;;7.71;100.00;103586.34;2568122;30;136843;-41
2021/12/17 12:34:03;;;;;;;40.13;17.92;;;9.30;99.90;;;7.74;100.00;103580.63;2568555;30;138610;-42
2021/12/17 12:36:55;;;;;;;45.20;19.10;;;9.30;99.90;;;7.72;100.00;103582.63;2568719;30;137985;-41
2021/12/17 12:39:37;;;;;;;42.22;18.48;;;9.30;99.90;;;7.80;100.00;103580.13;2567640;30;137148;-41
2021/12/17 12:42:21;;;;;;;41.92;18.33;;;9.30;99.90;;;7.83;100.00;103571.72;2567583;30;138243;-42
2021/12/17 12:44:49;;;;;;;40.75;17.63;;;9.40;99.90;;;7.83;100.00;103585.31;2568231;30;136995;-41
2021/12/17 12:47:26;;;;;;;39.50;18.45;;;9.40;99.90;;;7.88;100.00;103574.06;2568702;30;138269;-42
2021/12/17 12:50:02;;;;;;;35.90;17.10;;;9.40;99.90;;;7.94;100.00;103583.53;2568637;30;136814;-41
2021/12/17 12:52:29;;;;;;;37.20;17.52;;;9.50;99.90;;;7.86;100.00;103571.47;2569427;30;138254;-41
2021/12/17 12:55:06;;;;;;;37.03;16.90;;;9.40;99.90;;;7.84;100.00;103575.31;2567803;30;136924;-41
2021/12/17 12:57:39;;;;;;;37.40;17.00;;;9.40;99.90;;;7.74;100.00;103567.91;2568543;30;137359;-41
2021/12/17 13:00:20;;;;;;;35.67;16.00;;;9.40;99.90;;;7.82;100.00;103578.16;2565513;30;137540;-41
2021/12/17 13:02:57;;;;;;;33.58;16.10;;;9.40;99.90;;;7.78;100.00;103576.69;2568037;30;137497;-41
2021/12/17 13:05:25;;;;;;;34.08;15.98;;;9.40;99.90;;;7.81;100.00;103573.69;2568537;30;136826;-41
2021/12/17 13:07:57;;;;;;;;;;;9.40;99.90;;;7.82;100.00;103579.97;2569046;30;137185;-41
2021/12/17 13:10:30;;;;;;;36.45;15.88;;;9.40;99.90;;;7.83;100.00;103585.31;2567869;30;137181;-42
2021/12/17 13:13:28;;;;;;;37.22;16.25;;;9.40;99.90;;;7.75;100.00;103585.09;2567848;30;139086;-41